Heimkehr — DPMA — position and weather

sailwx.info

Track history (hours):
 
Tides and Currents Weather Stations Pressure Air Temp Water Temp Dewpoint Dewpoint Depression Visibility Wind Speed Wind Dir Waves Ship Positions

Heimkehr

Last reported at 2018-Sep-20 10:45 UTC. Time now 2018-Sep-22 01:51 UTC.
Position N 53°51' E 008°58'.

Length 18 m.

Type: Pleasure craft. MMSI: 211382270.

Date/timePositionNaut miles runAvg speedWind from/ knotsBaromVisibWave heightAir tempDewpointWater temp
2018-Sep-20 10:45N 53°51' E 008°58'2 4.5
2018-Sep-20 10:25N 53°51' E 009°01'2 5.1
2018-Sep-20 10:02N 53°49' E 009°02'1 4.9
2018-Sep-20 09:55N 53°48' E 009°03'1 3.1
2018-Sep-20 09:27N 53°48' E 009°05'4 0.6
2018-Sep-20 02:15N 53°45' E 009°09'  
2018-Sep-13 05:38N 53°45' E 009°09'0 0.0
2018-Sep-12 19:20N 53°45' E 009°09'0 0.0
2018-Sep-12 18:50N 53°45' E 009°09'0 0.0
2018-Sep-12 18:26N 53°45' E 009°09'3 0.5
2018-Sep-12 12:35N 53°48' E 009°07'0 0.0
2018-Sep-12 12:26N 53°48' E 009°07'0 0.0
2018-Sep-12 11:41N 53°48' E 009°07'1 1.9
2018-Sep-12 11:16N 53°48' E 009°06'1 4.5
2018-Sep-12 11:02N 53°48' E 009°04'0 5.3
2018-Sep-12 11:00N 53°48' E 009°04'3 5.2
2018-Sep-12 10:30N 53°50' E 009°01'2 4.3
2018-Sep-12 10:03N 53°51' E 008°58'0 3.8
2018-Sep-12 10:00N 53°51' E 008°59'1 2.7
2018-Sep-12 09:30N 53°52' E 009°01'3 6.9
2018-Sep-12 09:03N 53°53' E 009°06'0 6.9
2018-Sep-12 08:59N 53°53' E 009°07'1 2.5
2018-Sep-12 08:26N 53°54' E 009°09'0 0.5
2018-Sep-12 08:01N 53°54' E 009°09'0 0.1
2018-Sep-12 07:55N 53°54' E 009°09'0 0.4
2018-Sep-12 07:27N 53°54' E 009°09'0 0.0
2018-Sep-12 07:03N 53°54' E 009°09'0 0.0
2018-Sep-12 06:54N 53°54' E 009°09'0 0.0
2018-Sep-12 05:09N 53°54' E 009°09'0 0.0
2018-Sep-12 04:12N 53°54' E 009°09'0 0.0
2018-Sep-12 03:57N 53°54' E 009°09'0 0.0
2018-Sep-12 02:51N 53°54' E 009°09'0 0.0
2018-Sep-12 02:30N 53°54' E 009°09'0 0.0
2018-Sep-12 01:18N 53°54' E 009°09'0 0.0
2018-Sep-12 01:03N 53°54' E 009°09'0 0.0
2018-Sep-12 00:48N 53°54' E 009°09'0 0.0
2018-Sep-12 00:18N 53°54' E 009°09'0 0.0
2018-Sep-11 23:00N 53°54' E 009°09'0 0.0
2018-Sep-11 22:27N 53°54' E 009°09'0 0.0
2018-Sep-11 22:03N 53°54' E 009°09'0 0.0
2018-Sep-11 21:45N 53°54' E 009°09'0 0.0
2018-Sep-11 21:30N 53°54' E 009°09'0 0.0
2018-Sep-11 20:33N 53°54' E 009°09'0 0.0
2018-Sep-11 20:24N 53°54' E 009°09'0 0.0
2018-Sep-11 19:54N 53°54' E 009°09'0 0.0
2018-Sep-11 19:18N 53°54' E 009°09'0 0.0
2018-Sep-11 18:57N 53°54' E 009°09'0 0.0
2018-Sep-11 18:24N 53°54' E 009°09'0 0.0
2018-Sep-11 18:00N 53°54' E 009°09'0 0.0
2018-Sep-11 17:24N 53°54' E 009°09'0 0.0
2018-Sep-11 16:00N 53°54' E 009°09'0 0.0
2018-Sep-11 15:30N 53°54' E 009°09'0 0.0
2018-Sep-11 15:03N 53°54' E 009°09'0 0.0
2018-Sep-11 14:57N 53°54' E 009°09'0 0.0
2018-Sep-11 13:48N 53°54' E 009°09'0 0.0
2018-Sep-11 12:48N 53°54' E 009°09'0 0.0
2018-Sep-11 12:27N 53°54' E 009°09'0 0.0
2018-Sep-11 12:00N 53°54' E 009°09'0 0.0
2018-Sep-11 11:30N 53°54' E 009°09'0 0.0
2018-Sep-11 10:54N 53°54' E 009°09'0 0.0
2018-Sep-11 10:21N 53°54' E 009°09'0 0.0
2018-Sep-11 10:03N 53°54' E 009°09'0 0.0
2018-Sep-11 09:21N 53°54' E 009°09'0 0.0
2018-Sep-11 09:00N 53°54' E 009°09'0 0.0
2018-Sep-11 07:57N 53°54' E 009°09'0 0.0
2018-Sep-11 07:27N 53°54' E 009°09'0 0.0
2018-Sep-11 06:54N 53°54' E 009°09'0 0.0
2018-Sep-11 06:18N 53°54' E 009°09'0 0.0
2018-Sep-11 05:30N 53°54' E 009°09'0 0.0
2018-Sep-11 05:03N 53°54' E 009°09'0 0.0
2018-Sep-11 05:00N 53°54' E 009°09'0 0.0
2018-Sep-11 04:21N 53°54' E 009°09'0 0.0
2018-Sep-11 03:48N 53°54' E 009°09'0 0.0
2018-Sep-11 03:24N 53°54' E 009°09'0 0.0
2018-Sep-11 03:03N 53°54' E 009°09'0 0.0
2018-Sep-11 03:00N 53°54' E 009°09'0 0.0
2018-Sep-11 02:27N 53°54' E 009°09'0 0.0
2018-Sep-11 01:51N 53°54' E 009°09'0 0.0
2018-Sep-11 01:27N 53°54' E 009°09'0 0.0
2018-Sep-11 01:03N 53°54' E 009°09'0 0.0
2018-Sep-11 00:57N 53°54' E 009°09'0 0.0
2018-Sep-11 00:24N 53°54' E 009°09'0 0.0
2018-Sep-10 23:18N 53°54' E 009°09'0 0.0
2018-Sep-10 23:00N 53°54' E 009°09'0 0.0
2018-Sep-10 21:54N 53°54' E 009°09'0 0.0
2018-Sep-10 21:27N 53°54' E 009°09'0 0.0
2018-Sep-10 21:03N 53°54' E 009°09'0 0.0
2018-Sep-10 20:51N 53°54' E 009°09'0 0.0
2018-Sep-10 20:30N 53°54' E 009°09'0 0.0
2018-Sep-10 20:03N 53°54' E 009°09'0 0.0
2018-Sep-10 19:48N 53°54' E 009°09'0 0.0
2018-Sep-10 19:15N 53°54' E 009°09'0 0.0
2018-Sep-10 18:57N 53°54' E 009°09'0 0.0
2018-Sep-10 18:27N 53°54' E 009°09'0 0.0
2018-Sep-10 18:03N 53°54' E 009°09'0 0.0
2018-Sep-10 17:57N 53°54' E 009°09'0 0.0
2018-Sep-10 17:24N 53°54' E 009°09'0 0.0
2018-Sep-10 16:57N 53°54' E 009°09'0 0.0
2018-Sep-10 15:15N 53°54' E 009°09'0 0.0
2018-Sep-10 15:03N 53°54' E 009°09'0 0.0
2018-Sep-10 14:45N 53°54' E 009°09'0 0.0
2018-Sep-10 14:03N 53°54' E 009°09'0 1.9
2018-Sep-10 13:49N 53°54' E 009°09'2 5.2
2018-Sep-10 13:30N 53°55' E 009°11'  
Track history (hours):
 
Tides and Currents Weather Stations Pressure Air Temp Water Temp Dewpoint Dewpoint Depression Visibility Wind Speed Wind Dir Waves Ship Positions

Heimkehr

Last reported at 2018-Sep-20 10:45 UTC. Time now 2018-Sep-22 01:51 UTC.
Position N 53°51' E 008°58'.

Length 18 m.

Type: Pleasure craft. MMSI: 211382270.

Date/timePositionNaut miles runAvg speedWind from/ knotsBaromVisibWave heightAir tempDewpointWater temp
2018-Sep-20 10:45N 53°51' E 008°58'2 4.5
2018-Sep-20 10:25N 53°51' E 009°01'2 5.1
2018-Sep-20 10:02N 53°49' E 009°02'1 4.9
2018-Sep-20 09:55N 53°48' E 009°03'1 3.1
2018-Sep-20 09:27N 53°48' E 009°05'4 0.6
2018-Sep-20 02:15N 53°45' E 009°09'  
2018-Sep-13 05:38N 53°45' E 009°09'0 0.0
2018-Sep-12 19:20N 53°45' E 009°09'0 0.0
2018-Sep-12 18:50N 53°45' E 009°09'0 0.0
2018-Sep-12 18:26N 53°45' E 009°09'3 0.5
2018-Sep-12 12:35N 53°48' E 009°07'0 0.0
2018-Sep-12 12:26N 53°48' E 009°07'0 0.0
2018-Sep-12 11:41N 53°48' E 009°07'1 1.9
2018-Sep-12 11:16N 53°48' E 009°06'1 4.5
2018-Sep-12 11:02N 53°48' E 009°04'0 5.3
2018-Sep-12 11:00N 53°48' E 009°04'3 5.2
2018-Sep-12 10:30N 53°50' E 009°01'2 4.3
2018-Sep-12 10:03N 53°51' E 008°58'0 3.8
2018-Sep-12 10:00N 53°51' E 008°59'1 2.7
2018-Sep-12 09:30N 53°52' E 009°01'3 6.9
2018-Sep-12 09:03N 53°53' E 009°06'0 6.9
2018-Sep-12 08:59N 53°53' E 009°07'1 2.5
2018-Sep-12 08:26N 53°54' E 009°09'0 0.5
2018-Sep-12 08:01N 53°54' E 009°09'0 0.1
2018-Sep-12 07:55N 53°54' E 009°09'0 0.4
2018-Sep-12 07:27N 53°54' E 009°09'0 0.0
2018-Sep-12 07:03N 53°54' E 009°09'0 0.0
2018-Sep-12 06:54N 53°54' E 009°09'0 0.0
2018-Sep-12 05:09N 53°54' E 009°09'0 0.0
2018-Sep-12 04:12N 53°54' E 009°09'0 0.0
2018-Sep-12 03:57N 53°54' E 009°09'0 0.0
2018-Sep-12 02:51N 53°54' E 009°09'0 0.0
2018-Sep-12 02:30N 53°54' E 009°09'0 0.0
2018-Sep-12 01:18N 53°54' E 009°09'0 0.0
2018-Sep-12 01:03N 53°54' E 009°09'0 0.0
2018-Sep-12 00:48N 53°54' E 009°09'0 0.0
2018-Sep-12 00:18N 53°54' E 009°09'0 0.0
2018-Sep-11 23:00N 53°54' E 009°09'0 0.0
2018-Sep-11 22:27N 53°54' E 009°09'0 0.0
2018-Sep-11 22:03N 53°54' E 009°09'0 0.0
2018-Sep-11 21:45N 53°54' E 009°09'0 0.0
2018-Sep-11 21:30N 53°54' E 009°09'0 0.0
2018-Sep-11 20:33N 53°54' E 009°09'0 0.0
2018-Sep-11 20:24N 53°54' E 009°09'0 0.0
2018-Sep-11 19:54N 53°54' E 009°09'0 0.0
2018-Sep-11 19:18N 53°54' E 009°09'0 0.0
2018-Sep-11 18:57N 53°54' E 009°09'0 0.0
2018-Sep-11 18:24N 53°54' E 009°09'0 0.0
2018-Sep-11 18:00N 53°54' E 009°09'0 0.0
2018-Sep-11 17:24N 53°54' E 009°09'0 0.0
2018-Sep-11 16:00N 53°54' E 009°09'0 0.0
2018-Sep-11 15:30N 53°54' E 009°09'0 0.0
2018-Sep-11 15:03N 53°54' E 009°09'0 0.0
2018-Sep-11 14:57N 53°54' E 009°09'0 0.0
2018-Sep-11 13:48N 53°54' E 009°09'0 0.0
2018-Sep-11 12:48N 53°54' E 009°09'0 0.0
2018-Sep-11 12:27N 53°54' E 009°09'0 0.0
2018-Sep-11 12:00N 53°54' E 009°09'0 0.0
2018-Sep-11 11:30N 53°54' E 009°09'0 0.0
2018-Sep-11 10:54N 53°54' E 009°09'0 0.0
2018-Sep-11 10:21N 53°54' E 009°09'0 0.0
2018-Sep-11 10:03N 53°54' E 009°09'0 0.0
2018-Sep-11 09:21N 53°54' E 009°09'0 0.0
2018-Sep-11 09:00N 53°54' E 009°09'0 0.0
2018-Sep-11 07:57N 53°54' E 009°09'0 0.0
2018-Sep-11 07:27N 53°54' E 009°09'0 0.0
2018-Sep-11 06:54N 53°54' E 009°09'0 0.0
2018-Sep-11 06:18N 53°54' E 009°09'0 0.0
2018-Sep-11 05:30N 53°54' E 009°09'0 0.0
2018-Sep-11 05:03N 53°54' E 009°09'0 0.0
2018-Sep-11 05:00N 53°54' E 009°09'0 0.0
2018-Sep-11 04:21N 53°54' E 009°09'0 0.0
2018-Sep-11 03:48N 53°54' E 009°09'0 0.0
2018-Sep-11 03:24N 53°54' E 009°09'0 0.0
2018-Sep-11 03:03N 53°54' E 009°09'0 0.0
2018-Sep-11 03:00N 53°54' E 009°09'0 0.0
2018-Sep-11 02:27N 53°54' E 009°09'0 0.0
2018-Sep-11 01:51N 53°54' E 009°09'0 0.0
2018-Sep-11 01:27N 53°54' E 009°09'0 0.0
2018-Sep-11 01:03N 53°54' E 009°09'0 0.0
2018-Sep-11 00:57N 53°54' E 009°09'0 0.0
2018-Sep-11 00:24N 53°54' E 009°09'0 0.0
2018-Sep-10 23:18N 53°54' E 009°09'0 0.0
2018-Sep-10 23:00N 53°54' E 009°09'0 0.0
2018-Sep-10 21:54N 53°54' E 009°09'0 0.0
2018-Sep-10 21:27N 53°54' E 009°09'0 0.0
2018-Sep-10 21:03N 53°54' E 009°09'0 0.0
2018-Sep-10 20:51N 53°54' E 009°09'0 0.0
2018-Sep-10 20:30N 53°54' E 009°09'0 0.0
2018-Sep-10 20:03N 53°54' E 009°09'0 0.0
2018-Sep-10 19:48N 53°54' E 009°09'0 0.0
2018-Sep-10 19:15N 53°54' E 009°09'0 0.0
2018-Sep-10 18:57N 53°54' E 009°09'0 0.0
2018-Sep-10 18:27N 53°54' E 009°09'0 0.0
2018-Sep-10 18:03N 53°54' E 009°09'0 0.0
2018-Sep-10 17:57N 53°54' E 009°09'0 0.0
2018-Sep-10 17:24N 53°54' E 009°09'0 0.0
2018-Sep-10 16:57N 53°54' E 009°09'0 0.0
2018-Sep-10 15:15N 53°54' E 009°09'0 0.0
2018-Sep-10 15:03N 53°54' E 009°09'0 0.0
2018-Sep-10 14:45N 53°54' E 009°09'0 0.0
2018-Sep-10 14:03N 53°54' E 009°09'0 1.9
2018-Sep-10 13:49N 53°54' E 009°09'2 5.2
2018-Sep-10 13:30N 53°55' E 009°11'  

Dump ship's entire track history